createdAt,value
2023-01-10T00:02:52.793Z,55.50
2023-01-10T00:13:15.409Z,53.50
2023-01-10T00:23:25.340Z,54.70
2023-01-10T00:33:32.224Z,53.70
2023-01-10T00:43:56.299Z,56.50
2023-01-10T00:54:00.878Z,56.20
2023-01-10T01:04:07.809Z,55.00
2023-01-10T01:14:12.756Z,52.30
2023-01-10T01:24:16.314Z,51.40
2023-01-10T01:34:19.925Z,50.40
2023-01-10T01:44:24.847Z,52.90
2023-01-10T01:54:33.342Z,53.60
2023-01-10T02:04:50.899Z,55.70
2023-01-10T02:14:57.479Z,55.40
2023-01-10T02:25:11.937Z,55.70
2023-01-10T02:35:33.263Z,55.70
2023-01-10T02:45:59.727Z,56.10
2023-01-10T02:56:12.371Z,57.70
2023-01-10T03:06:23.723Z,54.90
2023-01-10T03:16:33.653Z,55.70
2023-01-10T03:26:50.134Z,53.80
2023-01-10T03:37:23.083Z,52.40
2023-01-10T03:47:46.684Z,52.20
2023-01-10T03:57:52.138Z,48.90
2023-01-10T04:07:55.700Z,46.80
2023-01-10T04:17:59.370Z,46.20
2023-01-10T04:28:07.829Z,44.50
2023-01-10T04:38:11.702Z,44.50
2023-01-10T04:48:15.306Z,41.60
2023-01-10T04:58:20.906Z,39.50
2023-01-10T05:08:24.438Z,39.60
2023-01-10T05:18:31.789Z,39.30
2023-01-10T05:28:35.327Z,39.10
2023-01-10T05:38:38.934Z,39.50
2023-01-10T05:48:44.954Z,39.80
2023-01-10T05:58:51.426Z,38.10
2023-01-10T06:08:59.243Z,36.90
2023-01-10T06:19:02.879Z,38.60
2023-01-10T06:29:06.595Z,36.90
2023-01-10T06:39:10.310Z,35.90
2023-01-10T06:49:13.855Z,37.00
2023-01-10T06:59:17.467Z,38.60
2023-01-10T07:09:21.220Z,39.80
2023-01-10T07:19:24.797Z,34.20
2023-01-10T07:29:33.110Z,36.70
2023-01-10T07:39:36.637Z,37.40
2023-01-10T07:49:40.957Z,36.10
2023-01-10T07:59:44.582Z,36.90
2023-01-10T08:09:48.134Z,36.20
2023-01-10T08:19:54.638Z,37.50
2023-01-10T08:29:58.253Z,40.70
2023-01-10T08:40:02.693Z,39.30
2023-01-10T08:50:08.060Z,40.00
2023-01-10T09:00:13.470Z,39.10
2023-01-10T09:10:19.285Z,36.30
2023-01-10T09:20:26.290Z,37.80
2023-01-10T09:30:33.920Z,34.90
2023-01-10T09:52:43.875Z,35.50
2023-01-10T10:02:58.139Z,34.40
2023-01-10T10:13:36.515Z,34.60
2023-01-10T10:24:06.702Z,34.40
2023-01-10T10:34:44.434Z,36.20
2023-01-10T10:45:00.036Z,34.50
2023-01-10T10:55:07.179Z,32.40
2023-01-10T11:05:24.130Z,33.50
2023-01-10T11:15:41.370Z,36.60
2023-01-10T11:25:49.122Z,33.50
2023-01-10T11:36:07.780Z,31.70
2023-01-10T11:46:25.919Z,30.10
2023-01-10T11:56:33.530Z,30.80
2023-01-10T12:06:45.939Z,27.80
2023-01-10T12:16:59.579Z,26.20
2023-01-10T12:27:06.717Z,22.30
2023-01-10T12:37:25.465Z,22.00
2023-01-10T12:47:51.695Z,29.20
2023-01-10T12:58:01.872Z,37.10
2023-01-10T13:08:12.059Z,32.60
2023-01-10T13:18:26.506Z,34.30
2023-01-10T13:28:33.367Z,32.90
2023-01-10T13:38:45.775Z,31.20
2023-01-10T13:48:52.352Z,26.40
2023-01-10T13:59:17.662Z,30.00
2023-01-10T14:09:21.195Z,52.70
2023-01-10T14:19:34.363Z,67.20
2023-01-10T14:29:38.752Z,86.60
2023-01-10T14:39:43.840Z,125.20
2023-01-10T14:49:54.903Z,149.40
2023-01-10T15:00:09.729Z,141.20
2023-01-10T15:10:33.638Z,148.40
2023-01-10T15:20:37.424Z,132.00
2023-01-10T15:30:44.121Z,159.90
2023-01-10T15:41:02.829Z,77.90
2023-01-10T15:51:22.896Z,55.20
2023-01-10T16:01:28.967Z,60.30
2023-01-10T16:12:04.711Z,48.70
2023-01-10T16:22:08.360Z,59.90
2023-01-10T16:32:14.851Z,71.60
2023-01-10T16:42:37.673Z,85.50
2023-01-10T16:53:24.583Z,76.90
2023-01-10T17:03:33.340Z,66.40
2023-01-10T17:13:42.564Z,54.00
2023-01-10T17:23:50.638Z,59.00
2023-01-10T17:33:54.193Z,61.10
2023-01-10T17:43:59.033Z,48.40
2023-01-10T17:54:04.715Z,47.80
2023-01-10T18:04:09.133Z,101.30
2023-01-10T18:14:35.420Z,76.80
2023-01-10T18:24:40.830Z,77.30
2023-01-10T18:34:44.621Z,89.20
2023-01-10T18:44:48.899Z,99.50
2023-01-10T18:54:54.384Z,91.40
2023-01-10T19:04:58.295Z,89.20
2023-01-10T19:15:01.905Z,94.00
2023-01-10T19:25:08.308Z,102.10
2023-01-10T19:35:13.943Z,64.90
2023-01-10T19:45:17.830Z,79.50
2023-01-10T19:55:21.512Z,129.20
2023-01-10T20:05:25.357Z,172.10
2023-01-10T20:15:29.076Z,66.70
2023-01-10T20:25:34.859Z,57.40
2023-01-10T20:35:40.537Z,53.40
2023-01-10T20:45:44.275Z,46.40
2023-01-10T20:55:59.056Z,46.70
2023-01-10T21:06:04.149Z,39.20
2023-01-10T21:16:14.494Z,37.10
2023-01-10T21:26:19.817Z,39.80
2023-01-10T21:36:23.479Z,39.70
2023-01-10T21:46:27.367Z,41.20
2023-01-10T21:56:34.829Z,40.40
2023-01-10T22:06:38.693Z,43.40
2023-01-10T22:16:43.881Z,46.40
2023-01-10T22:26:49.527Z,48.20
2023-01-10T22:36:53.177Z,46.60
2023-01-10T22:46:59.825Z,43.20
2023-01-10T22:57:03.655Z,38.30
2023-01-10T23:08:33.044Z,46.40
2023-01-10T23:19:36.675Z,55.40
2023-01-10T23:29:40.296Z,65.80
2023-01-10T23:39:43.906Z,39.90
2023-01-10T23:49:50.659Z,32.10
2023-01-10T23:59:54.378Z,30.20
